x

North Huron - 32nm Northeast Of Alpena, Mi (45003) Wave Buoy

12:50am - Sun 24th May 2015 All times are CDT. -5 hours from GMT.

  • Sig Wave height 1.6ft
  • Swell Direction
  • Peak Period 4s
  • Average Period 4s
  • Wind
  • Sea Temp 37°f
  • Air Temp 47°f
  • Sea Pressure 1022.4mb
  • North Huron - 32nm Northeast Of Alpena, Mi
  • North Huron - 32nm Northeast Of Alpena, Mi

More Historic Weather Station data

Upgrade to MSW Pro to gain access to the past 30 days of data for over 8000 Wavebouys and Weather Stations around the globe.

Join Pro

Comparision Forecast

View Surf forecast
   
Sun 05/24 12:50am 1.6ft 4s 4s  -  2 mph 1022.4mb 37f 47f
Sat 05/23 11:50pm 2ft 4s 4s 9
mph
1022.1mb 37f 45f
10:50pm 2ft 4s 4s 9
mph
1022mb 37f 46f
9:50pm 1.6ft 4s 4s 9
mph
1022.2mb 37f 44f
8:50pm 1.6ft 5s 4s 9
mph
1021.9mb 37f 44f
7:50pm 1.6ft 5s 4s 9 11 mph 1021.6mb 37f 44f
6:50pm 1.6ft 4s 4s 9
mph
1022mb 37f 44f
5:50pm 1.6ft 4s 4s 9
mph
1022.3mb 37f 46f
4:50pm 1.6ft 4s 4s 7 9 mph 1023.1mb 37f 43f
3:50pm 1.6ft 4s 4s 9 11 mph 1023.6mb 37f 45f
2:50pm 1.6ft 4s 3s 9 11 mph 1024mb 37f 42f
1:50pm 1.6ft 4s 3s 13 16 mph 1024.2mb 37f 42f
12:50pm 1.6ft 3s 3s 13 16 mph 1024.5mb 37f 42f
11:50am 1.3ft 3s 3s 13 16 mph 1025.2mb 37f 42f
10:50am 1.3ft 3s 3s 13 16 mph 1025.7mb 37f 41f
9:50am 1ft 3s 3s 13 16 mph 1025.9mb 37f 40f
8:50am 0.7ft  -  3s 13
mph
1026.6mb 37f 40f
7:50am 0.7ft  -  3s 13
mph
1027mb 37f 40f
6:50am 0.7ft  -  3s 13 16 mph 1027mb 37f 40f
5:50am 0.7ft  -  3s 11 13 mph 1026.7mb 37f 39f
4:50am 0.7ft  -  3s 7
mph
1026.4mb 37f 38f
3:50am 0.7ft  -  3s 9 11 mph 1026.4mb 37f 39f
2:50am 1ft 4s 3s 9 11 mph 1026.4mb 37f 39f
1:50am 1ft 4s 3s 7 9 mph 1026.1mb 37f 40f
12:50am 1ft 4s 4s 4
mph
1025.8mb 37f 40f
Fri 05/22 11:50pm 1.3ft 4s 3s 4 7 mph 1025.7mb 37f 40f
10:50pm 1.3ft 4s 4s 7 9 mph 1025.9mb 37f 40f
9:50pm 1.6ft 4s 4s 11
mph
1025.8mb 37f 41f
8:50pm 1.6ft 5s 4s 11
mph
1025.3mb 37f 40f
7:50pm 1.6ft 4s 3s 11 13 mph 1024.7mb 37f 41f
6:50pm 1.3ft 4s 3s 13
mph
1024.4mb 37f 42f
5:50pm 1ft 3s 3s 11 13 mph 1024.3mb 37f 41f
4:50pm 1ft 3s 3s 9 11 mph 1024.4mb 37f 40f
3:50pm 1ft 3s 3s 13 16 mph 1024.1mb 37f 40f
2:50pm 1ft 3s 3s 9 11 mph 1023.9mb 37f 40f
1:50pm 1ft 3s 3s 9
mph
1023.9mb 37f 38f
12:50pm 1ft 3s 3s 11
mph
1023.8mb 37f 38f
11:50am 1ft 4s 3s 11 13 mph 1023.4mb 37f 37f
10:50am 1ft 4s 3s 11
mph
1023mb 37f 37f
9:50am 1ft 4s 3s 11 13 mph 1022.4mb 37f 38f
8:50am 1.3ft 4s 3s 9 11 mph 1021.9mb 37f 38f
7:50am 1.3ft 4s 3s 9
mph
1021.2mb 37f 38f
6:50am 1.6ft 4s 3s 7 9 mph 1020.7mb 37f 38f
5:50am 1.6ft 4s 3s 7
mph
1019.6mb 37f 39f
4:50am 1.6ft 4s 3s 7
mph
1018.3mb 37f 38f
3:50am 2ft 4s 4s 11
mph
1017.4mb 37f 39f
2:50am 2ft 5s 4s 11 13 mph 1016.5mb 37f 39f
1:50am 2.5ft 5s 4s 13
mph
1015.7mb 37f 41f
12:50am 3ft 5s 4s 18 20 mph 1014.7mb 37f 40f
Thu 05/21 11:50pm 3ft 5s 4s 20 22 mph 1013.9mb 37f 40f
10:50pm 4ft 5s 4s 20 22 mph 1013.4mb 37f 41f
9:50pm 4.5ft 5s 4s 20 22 mph 1013.3mb 37f 42f
8:50pm 4.5ft 5s 4s 25 27 mph 1012.5mb 37f 44f
7:50pm 3.5ft 4s 4s 27 34 mph 1011.4mb 37f 44f
6:50pm 3ft 4s 4s 22 27 mph 1011mb 37f 44f
5:50pm 2ft 3s 3s 22 25 mph 1010.3mb 37f 45f
4:50pm 1ft 3s 3s 18 20 mph 1010.4mb 37f 44f
3:50pm 0.7ft  -  3s 9 16 mph 1010.5mb 37f 48f
2:50pm 0.7ft  -  3s 4 7 mph 1010.8mb 37f 44f
1:50pm 0.7ft  -  3s 7 9 mph 1010.6mb 37f 42f
12:50pm 0.7ft  -  3s 9 11 mph 1010.8mb 37f 41f
11:50am 0.3ft  -  3s 11 13 mph 1011.5mb 37f 41f